KAPA/APA METAR and TAF weather

Enter ICAO airport designator
Station Type Date Time Source
KAPA METAR 2022/05/24 11:00 UTC NOAA

KAPA 241100Z 30004KT 10SM FEW012 BKN030 OVC041 06/04 A3004 RMK AO2 T00610039


Station Type Date Time Source
KAPA Decoded METAR 2022/05/24 11:00 UTC NOAA

DENVER CENTENNIAL AIRPORT, CO, United States (KAPA) 39-34N 104-51W 1775M
May 24, 2022 - 07:00 AM EDT / 2022.05.24 1100 UTC
Wind: from the WNW (300 degrees) at 5 MPH (4 KT):0
Visibility: 10 mile(s):0
Sky conditions: overcast
Temperature: 43.0 F (6.1 C)
Dew Point: 39.0 F (3.9 C)
Relative Humidity: 85%
Pressure (altimeter): 30.04 in. Hg (1017 hPa)
ob: KAPA 241100Z 30004KT 10SM FEW012 BKN030 OVC041 06/04 A3004 RMK AO2 T00610039
cycle: 11

Station Type Date Time Source
KAPA TAF 2022/05/24 10:28 UTC NOAA

TAF
AMD KAPA 241026Z 2410/2506 29005KT P6SM BKN035 OVC070
FM241100 35005KT P6SM SCT004 OVC025
TEMPO 2412/2414 2SM BR BKN004
FM241700 04007KT P6SM BKN025 OVC040
FM242000 05010KT P6SM SCT025 OVC060
TEMPO 2423/2503 -SHRA BKN025
FM250300 22007KT P6SM SCT030 BKN060

Example: see airport list